sensor_id;sensor_type;location;lat;lon;timestamp;temperature;humidity
48946;DHT22;34999;50.940;3.998;2022-08-01T00:00:10;20.30;99.90
48946;DHT22;34999;50.940;3.998;2022-08-01T00:02:39;20.30;99.90
48946;DHT22;34999;50.940;3.998;2022-08-01T00:05:09;20.30;99.90
48946;DHT22;34999;50.940;3.998;2022-08-01T00:07:39;20.30;99.90
48946;DHT22;34999;50.940;3.998;2022-08-01T00:10:09;20.20;99.90
48946;DHT22;34999;50.940;3.998;2022-08-01T00:12:40;20.20;99.90
48946;DHT22;34999;50.940;3.998;2022-08-01T00:15:11;20.10;99.90
48946;DHT22;34999;50.940;3.998;2022-08-01T00:17:40;20.10;99.90
48946;DHT22;34999;50.940;3.998;2022-08-01T00:20:11;20.00;99.90
48946;DHT22;34999;50.940;3.998;2022-08-01T00:22:40;20.00;99.90
48946;DHT22;34999;50.940;3.998;2022-08-01T00:25:08;20.00;99.90
48946;DHT22;34999;50.940;3.998;2022-08-01T00:27:37;20.00;99.90
48946;DHT22;34999;50.940;3.998;2022-08-01T00:30:08;19.90;99.90
48946;DHT22;34999;50.940;3.998;2022-08-01T00:32:41;19.90;99.90
48946;DHT22;34999;50.940;3.998;2022-08-01T00:35:10;19.90;99.90
48946;DHT22;34999;50.940;3.998;2022-08-01T00:37:40;19.90;99.90
48946;DHT22;34999;50.940;3.998;2022-08-01T00:40:08;19.80;99.90
48946;DHT22;34999;50.940;3.998;2022-08-01T00:42:37;19.80;99.90
48946;DHT22;34999;50.940;3.998;2022-08-01T00:45:11;19.80;99.90
48946;DHT22;34999;50.940;3.998;2022-08-01T00:47:39;19.80;99.90
48946;DHT22;34999;50.940;3.998;2022-08-01T00:50:09;19.80;99.90
48946;DHT22;34999;50.940;3.998;2022-08-01T00:52:39;19.80;99.90
48946;DHT22;34999;50.940;3.998;2022-08-01T00:55:09;19.70;99.90
48946;DHT22;34999;50.940;3.998;2022-08-01T00:57:41;19.70;99.90
48946;DHT22;34999;50.940;3.998;2022-08-01T01:00:33;19.70;99.90
48946;DHT22;34999;50.940;3.998;2022-08-01T01:03:21;19.70;99.90
48946;DHT22;34999;50.940;3.998;2022-08-01T01:06:18;19.70;99.90
48946;DHT22;34999;50.940;3.998;2022-08-01T01:09:00;19.70;99.90
48946;DHT22;34999;50.940;3.998;2022-08-01T01:11:37;19.70;99.90
48946;DHT22;34999;50.940;3.998;2022-08-01T01:14:12;19.60;99.90
48946;DHT22;34999;50.940;3.998;2022-08-01T01:16:44;19.70;99.90
48946;DHT22;34999;50.940;3.998;2022-08-01T01:19:16;19.70;99.90
48946;DHT22;34999;50.940;3.998;2022-08-01T01:24:54;19.70;99.90
48946;DHT22;34999;50.940;3.998;2022-08-01T01:27:36;19.60;99.90
48946;DHT22;34999;50.940;3.998;2022-08-01T01:30:09;19.60;99.90
48946;DHT22;34999;50.940;3.998;2022-08-01T01:32:41;19.60;99.90
48946;DHT22;34999;50.940;3.998;2022-08-01T01:35:15;19.60;99.90
48946;DHT22;34999;50.940;3.998;2022-08-01T01:37:47;19.60;99.90
48946;DHT22;34999;50.940;3.998;2022-08-01T01:40:18;19.60;99.90
48946;DHT22;34999;50.940;3.998;2022-08-01T01:42:48;19.60;99.90
48946;DHT22;34999;50.940;3.998;2022-08-01T01:45:18;19.60;99.90
48946;DHT22;34999;50.940;3.998;2022-08-01T01:47:47;19.60;99.90
48946;DHT22;34999;50.940;3.998;2022-08-01T01:50:16;19.60;99.90
48946;DHT22;34999;50.940;3.998;2022-08-01T01:52:48;19.60;99.90
48946;DHT22;34999;50.940;3.998;2022-08-01T01:55:19;19.60;99.90
48946;DHT22;34999;50.940;3.998;2022-08-01T01:57:48;19.60;99.90
48946;DHT22;34999;50.940;3.998;2022-08-01T02:00:19;19.60;99.90
48946;DHT22;34999;50.940;3.998;2022-08-01T02:02:48;19.60;99.90
48946;DHT22;34999;50.940;3.998;2022-08-01T02:05:19;19.60;99.90
48946;DHT22;34999;50.940;3.998;2022-08-01T02:07:49;19.50;99.90
48946;DHT22;34999;50.940;3.998;2022-08-01T02:10:26;19.50;99.90
48946;DHT22;34999;50.940;3.998;2022-08-01T02:12:56;19.50;99.90
48946;DHT22;34999;50.940;3.998;2022-08-01T02:15:27;19.60;99.90
48946;DHT22;34999;50.940;3.998;2022-08-01T02:17:56;19.50;99.90
48946;DHT22;34999;50.940;3.998;2022-08-01T02:20:28;19.50;99.90
48946;DHT22;34999;50.940;3.998;2022-08-01T02:23:01;19.50;99.90
48946;DHT22;34999;50.940;3.998;2022-08-01T02:25:39;19.40;99.90
48946;DHT22;34999;50.940;3.998;2022-08-01T02:28:33;19.40;99.90
48946;DHT22;34999;50.940;3.998;2022-08-01T02:31:07;19.40;99.90
48946;DHT22;34999;50.940;3.998;2022-08-01T02:33:40;19.40;99.90
48946;DHT22;34999;50.940;3.998;2022-08-01T02:36:11;19.30;99.90
48946;DHT22;34999;50.940;3.998;2022-08-01T02:39:00;19.30;99.90
48946;DHT22;34999;50.940;3.998;2022-08-01T02:41:30;19.30;99.90
48946;DHT22;34999;50.940;3.998;2022-08-01T02:44:03;19.30;99.90
48946;DHT22;34999;50.940;3.998;2022-08-01T02:46:37;19.20;99.90
48946;DHT22;34999;50.940;3.998;2022-08-01T02:49:08;19.20;99.90
48946;DHT22;34999;50.940;3.998;2022-08-01T02:51:39;19.20;99.90
48946;DHT22;34999;50.940;3.998;2022-08-01T02:54:09;19.20;99.90
48946;DHT22;34999;50.940;3.998;2022-08-01T02:56:38;19.20;99.90
48946;DHT22;34999;50.940;3.998;2022-08-01T02:59:11;19.20;99.90
48946;DHT22;34999;50.940;3.998;2022-08-01T03:01:44;19.10;99.90
48946;DHT22;34999;50.940;3.998;2022-08-01T03:04:14;19.10;99.90
48946;DHT22;34999;50.940;3.998;2022-08-01T03:06:46;19.10;99.90
48946;DHT22;34999;50.940;3.998;2022-08-01T03:09:16;19.10;99.90
48946;DHT22;34999;50.940;3.998;2022-08-01T03:11:45;19.10;99.90
48946;DHT22;34999;50.940;3.998;2022-08-01T03:14:17;19.10;99.90
48946;DHT22;34999;50.940;3.998;2022-08-01T03:16:51;19.00;99.90
48946;DHT22;34999;50.940;3.998;2022-08-01T03:19:22;19.00;99.90
48946;DHT22;34999;50.940;3.998;2022-08-01T03:21:53;19.00;99.90
48946;DHT22;34999;50.940;3.998;2022-08-01T03:24:26;18.90;99.90
48946;DHT22;34999;50.940;3.998;2022-08-01T03:26:56;18.90;99.90
48946;DHT22;34999;50.940;3.998;2022-08-01T03:29:27;18.90;99.90
48946;DHT22;34999;50.940;3.998;2022-08-01T03:32:00;18.90;99.90
48946;DHT22;34999;50.940;3.998;2022-08-01T03:34:30;18.90;99.90
48946;DHT22;34999;50.940;3.998;2022-08-01T03:37:03;18.90;99.90
48946;DHT22;34999;50.940;3.998;2022-08-01T03:39:36;18.90;99.90
48946;DHT22;34999;50.940;3.998;2022-08-01T03:42:14;18.90;99.90
48946;DHT22;34999;50.940;3.998;2022-08-01T03:44:52;18.90;99.90
48946;DHT22;34999;50.940;3.998;2022-08-01T03:47:28;18.90;99.90
48946;DHT22;34999;50.940;3.998;2022-08-01T03:49:58;18.90;99.90
48946;DHT22;34999;50.940;3.998;2022-08-01T03:52:29;18.90;99.90
48946;DHT22;34999;50.940;3.998;2022-08-01T03:55:01;18.90;99.90
48946;DHT22;34999;50.940;3.998;2022-08-01T03:57:33;18.90;99.90
48946;DHT22;34999;50.940;3.998;2022-08-01T04:00:05;18.90;99.90
48946;DHT22;34999;50.940;3.998;2022-08-01T04:02:38;18.90;99.90
48946;DHT22;34999;50.940;3.998;2022-08-01T04:05:07;18.90;99.90
48946;DHT22;34999;50.940;3.998;2022-08-01T04:07:36;18.80;99.90
48946;DHT22;34999;50.940;3.998;2022-08-01T04:10:06;18.90;99.90
48946;DHT22;34999;50.940;3.998;2022-08-01T04:12:35;18.90;99.90
48946;DHT22;34999;50.940;3.998;2022-08-01T04:15:04;18.90;99.90
48946;DHT22;34999;50.940;3.998;2022-08-01T04:17:33;18.90;99.90
48946;DHT22;34999;50.940;3.998;2022-08-01T04:20:03;18.90;99.90
48946;DHT22;34999;50.940;3.998;2022-08-01T04:22:32;18.80;99.90
48946;DHT22;34999;50.940;3.998;2022-08-01T04:25:07;18.80;99.90
48946;DHT22;34999;50.940;3.998;2022-08-01T04:27:40;18.80;99.90
48946;DHT22;34999;50.940;3.998;2022-08-01T04:30:19;18.80;99.90
48946;DHT22;34999;50.940;3.998;2022-08-01T04:32:52;18.90;99.90
48946;DHT22;34999;50.940;3.998;2022-08-01T04:35:25;18.90;99.90
48946;DHT22;34999;50.940;3.998;2022-08-01T04:38:19;18.90;99.90
48946;DHT22;34999;50.940;3.998;2022-08-01T04:40:50;18.90;99.90
48946;DHT22;34999;50.940;3.998;2022-08-01T04:43:20;18.90;99.90
48946;DHT22;34999;50.940;3.998;2022-08-01T04:45:50;19.00;99.90
48946;DHT22;34999;50.940;3.998;2022-08-01T04:48:19;19.00;99.90
48946;DHT22;34999;50.940;3.998;2022-08-01T04:50:50;19.00;99.90
48946;DHT22;34999;50.940;3.998;2022-08-01T04:53:19;19.00;99.90
48946;DHT22;34999;50.940;3.998;2022-08-01T04:55:49;19.00;99.90
48946;DHT22;34999;50.940;3.998;2022-08-01T04:58:18;19.00;99.90
48946;DHT22;34999;50.940;3.998;2022-08-01T05:00:46;19.00;99.90
48946;DHT22;34999;50.940;3.998;2022-08-01T05:03:14;19.10;99.90
48946;DHT22;34999;50.940;3.998;2022-08-01T05:05:43;19.10;99.90
48946;DHT22;34999;50.940;3.998;2022-08-01T05:08:15;19.20;99.90
48946;DHT22;34999;50.940;3.998;2022-08-01T05:10:44;19.20;99.90
48946;DHT22;34999;50.940;3.998;2022-08-01T05:13:12;19.20;99.90
48946;DHT22;34999;50.940;3.998;2022-08-01T05:15:41;19.20;99.90
48946;DHT22;34999;50.940;3.998;2022-08-01T05:18:09;19.20;99.90
48946;DHT22;34999;50.940;3.998;2022-08-01T05:20:40;19.30;99.90
48946;DHT22;34999;50.940;3.998;2022-08-01T05:23:09;19.30;99.90
48946;DHT22;34999;50.940;3.998;2022-08-01T05:25:59;19.40;99.90
48946;DHT22;34999;50.940;3.998;2022-08-01T05:28:28;19.40;99.90
48946;DHT22;34999;50.940;3.998;2022-08-01T05:30:56;19.50;99.90
48946;DHT22;34999;50.940;3.998;2022-08-01T05:33:24;19.60;99.90
48946;DHT22;34999;50.940;3.998;2022-08-01T05:35:52;19.60;99.90
48946;DHT22;34999;50.940;3.998;2022-08-01T05:38:21;19.70;99.90
48946;DHT22;34999;50.940;3.998;2022-08-01T05:40:49;19.70;99.90
48946;DHT22;34999;50.940;3.998;2022-08-01T05:43:19;19.80;99.90
48946;DHT22;34999;50.940;3.998;2022-08-01T05:45:54;19.80;99.90
48946;DHT22;34999;50.940;3.998;2022-08-01T05:48:22;19.90;99.90
48946;DHT22;34999;50.940;3.998;2022-08-01T05:50:51;20.00;99.90
48946;DHT22;34999;50.940;3.998;2022-08-01T05:53:24;19.90;99.90
48946;DHT22;34999;50.940;3.998;2022-08-01T05:55:53;20.00;99.90
48946;DHT22;34999;50.940;3.998;2022-08-01T05:58:22;20.00;99.90
48946;DHT22;34999;50.940;3.998;2022-08-01T06:00:51;20.00;99.90
48946;DHT22;34999;50.940;3.998;2022-08-01T06:03:19;20.10;99.90
48946;DHT22;34999;50.940;3.998;2022-08-01T06:05:48;20.10;99.90
48946;DHT22;34999;50.940;3.998;2022-08-01T06:08:16;20.10;99.90
48946;DHT22;34999;50.940;3.998;2022-08-01T06:10:44;20.10;99.90
48946;DHT22;34999;50.940;3.998;2022-08-01T06:13:13;20.20;99.90
48946;DHT22;34999;50.940;3.998;2022-08-01T06:18:50;20.40;99.90
48946;DHT22;34999;50.940;3.998;2022-08-01T06:21:23;20.70;99.90
48946;DHT22;34999;50.940;3.998;2022-08-01T06:23:51;20.80;99.90
48946;DHT22;34999;50.940;3.998;2022-08-01T06:26:20;21.00;99.90
48946;DHT22;34999;50.940;3.998;2022-08-01T06:28:48;21.20;99.90
48946;DHT22;34999;50.940;3.998;2022-08-01T06:31:35;21.30;99.90
48946;DHT22;34999;50.940;3.998;2022-08-01T06:34:06;21.50;99.90
48946;DHT22;34999;50.940;3.998;2022-08-01T06:36:34;21.60;99.90
48946;DHT22;34999;50.940;3.998;2022-08-01T06:39:03;21.60;99.90
48946;DHT22;34999;50.940;3.998;2022-08-01T06:41:31;21.60;99.90
48946;DHT22;34999;50.940;3.998;2022-08-01T06:43:59;21.70;99.90
48946;DHT22;34999;50.940;3.998;2022-08-01T06:46:29;21.50;99.90
48946;DHT22;34999;50.940;3.998;2022-08-01T06:48:58;21.40;99.90
48946;DHT22;34999;50.940;3.998;2022-08-01T06:51:28;21.30;99.90
48946;DHT22;34999;50.940;3.998;2022-08-01T06:53:59;21.30;99.90
48946;DHT22;34999;50.940;3.998;2022-08-01T06:56:28;21.20;99.90
48946;DHT22;34999;50.940;3.998;2022-08-01T06:58:56;21.20;99.90
48946;DHT22;34999;50.940;3.998;2022-08-01T07:01:28;21.20;99.90
48946;DHT22;34999;50.940;3.998;2022-08-01T07:04:01;21.20;99.90
48946;DHT22;34999;50.940;3.998;2022-08-01T07:06:30;21.20;99.90
48946;DHT22;34999;50.940;3.998;2022-08-01T07:08:59;21.30;99.90
48946;DHT22;34999;50.940;3.998;2022-08-01T07:11:35;21.40;99.90
48946;DHT22;34999;50.940;3.998;2022-08-01T07:14:03;21.50;99.90
48946;DHT22;34999;50.940;3.998;2022-08-01T07:16:31;21.40;99.90
48946;DHT22;34999;50.940;3.998;2022-08-01T07:19:00;21.30;99.90
48946;DHT22;34999;50.940;3.998;2022-08-01T07:21:30;21.30;99.90
48946;DHT22;34999;50.940;3.998;2022-08-01T07:24:11;21.30;99.90
48946;DHT22;34999;50.940;3.998;2022-08-01T07:26:42;21.20;99.90
48946;DHT22;34999;50.940;3.998;2022-08-01T07:29:20;21.20;99.90
48946;DHT22;34999;50.940;3.998;2022-08-01T07:31:49;21.30;99.90
48946;DHT22;34999;50.940;3.998;2022-08-01T07:34:20;21.40;99.90
48946;DHT22;34999;50.940;3.998;2022-08-01T07:36:51;21.70;99.90
48946;DHT22;34999;50.940;3.998;2022-08-01T07:39:20;21.90;99.90
48946;DHT22;34999;50.940;3.998;2022-08-01T07:41:48;22.00;99.90
48946;DHT22;34999;50.940;3.998;2022-08-01T07:44:32;22.20;99.90
48946;DHT22;34999;50.940;3.998;2022-08-01T07:47:01;22.40;99.90
48946;DHT22;34999;50.940;3.998;2022-08-01T07:49:29;22.50;99.90
48946;DHT22;34999;50.940;3.998;2022-08-01T07:52:07;22.60;99.90
48946;DHT22;34999;50.940;3.998;2022-08-01T07:54:36;22.80;99.90
48946;DHT22;34999;50.940;3.998;2022-08-01T07:57:05;23.20;99.90
48946;DHT22;34999;50.940;3.998;2022-08-01T08:02:42;23.40;99.90
48946;DHT22;34999;50.940;3.998;2022-08-01T08:05:11;23.20;99.90
48946;DHT22;34999;50.940;3.998;2022-08-01T08:07:41;23.00;99.90
48946;DHT22;34999;50.940;3.998;2022-08-01T08:10:09;22.90;99.90
48946;DHT22;34999;50.940;3.998;2022-08-01T08:12:37;22.80;99.90
48946;DHT22;34999;50.940;3.998;2022-08-01T08:15:06;22.80;99.90
48946;DHT22;34999;50.940;3.998;2022-08-01T08:17:35;22.80;99.90
48946;DHT22;34999;50.940;3.998;2022-08-01T08:20:06;23.20;99.90
48946;DHT22;34999;50.940;3.998;2022-08-01T08:22:36;24.00;99.90
48946;DHT22;34999;50.940;3.998;2022-08-01T08:25:07;24.90;99.90
48946;DHT22;34999;50.940;3.998;2022-08-01T08:27:37;25.20;99.90
48946;DHT22;34999;50.940;3.998;2022-08-01T08:30:07;25.70;99.90
48946;DHT22;34999;50.940;3.998;2022-08-01T08:32:38;26.40;99.90
48946;DHT22;34999;50.940;3.998;2022-08-01T08:35:07;26.80;99.90
48946;DHT22;34999;50.940;3.998;2022-08-01T08:37:38;27.20;99.90
48946;DHT22;34999;50.940;3.998;2022-08-01T08:40:16;27.10;99.90
48946;DHT22;34999;50.940;3.998;2022-08-01T08:42:45;27.00;99.90
48946;DHT22;34999;50.940;3.998;2022-08-01T08:45:14;27.20;99.90
48946;DHT22;34999;50.940;3.998;2022-08-01T08:47:43;27.10;99.90
48946;DHT22;34999;50.940;3.998;2022-08-01T08:50:13;27.30;99.90
48946;DHT22;34999;50.940;3.998;2022-08-01T08:52:43;27.80;99.90
48946;DHT22;34999;50.940;3.998;2022-08-01T08:55:12;28.30;99.90
48946;DHT22;34999;50.940;3.998;2022-08-01T08:57:44;28.50;99.90
48946;DHT22;34999;50.940;3.998;2022-08-01T09:00:14;28.70;99.90
48946;DHT22;34999;50.940;3.998;2022-08-01T09:02:43;27.80;99.90
48946;DHT22;34999;50.940;3.998;2022-08-01T09:05:15;27.20;99.90
48946;DHT22;34999;50.940;3.998;2022-08-01T09:07:46;26.50;99.90
48946;DHT22;34999;50.940;3.998;2022-08-01T09:10:14;25.90;99.90
48946;DHT22;34999;50.940;3.998;2022-08-01T09:13:17;25.30;99.90
48946;DHT22;34999;50.940;3.998;2022-08-01T09:15:47;25.70;99.90
48946;DHT22;34999;50.940;3.998;2022-08-01T09:18:32;26.80;99.90
48946;DHT22;34999;50.940;3.998;2022-08-01T09:21:12;27.10;99.90
48946;DHT22;34999;50.940;3.998;2022-08-01T09:23:44;27.10;99.90
48946;DHT22;34999;50.940;3.998;2022-08-01T09:26:22;27.40;99.90
48946;DHT22;34999;50.940;3.998;2022-08-01T09:28:58;27.50;99.90
48946;DHT22;34999;50.940;3.998;2022-08-01T09:31:28;27.00;99.90
48946;DHT22;34999;50.940;3.998;2022-08-01T09:34:04;26.60;99.90
48946;DHT22;34999;50.940;3.998;2022-08-01T09:36:45;26.40;99.90
48946;DHT22;34999;50.940;3.998;2022-08-01T09:39:22;26.50;99.90
48946;DHT22;34999;50.940;3.998;2022-08-01T09:41:51;26.60;99.90
48946;DHT22;34999;50.940;3.998;2022-08-01T09:44:39;26.70;99.90
48946;DHT22;34999;50.940;3.998;2022-08-01T09:47:21;27.10;99.90
48946;DHT22;34999;50.940;3.998;2022-08-01T09:49:54;27.60;99.90
48946;DHT22;34999;50.940;3.998;2022-08-01T09:52:26;27.50;99.90
48946;DHT22;34999;50.940;3.998;2022-08-01T09:54:57;27.00;99.90
48946;DHT22;34999;50.940;3.998;2022-08-01T09:57:28;27.10;99.90
48946;DHT22;34999;50.940;3.998;2022-08-01T09:59:59;27.50;99.90
48946;DHT22;34999;50.940;3.998;2022-08-01T10:02:30;27.70;99.90
48946;DHT22;34999;50.940;3.998;2022-08-01T10:05:01;27.80;99.90
48946;DHT22;34999;50.940;3.998;2022-08-01T10:07:36;28.00;99.90
48946;DHT22;34999;50.940;3.998;2022-08-01T10:10:24;27.90;99.90
48946;DHT22;34999;50.940;3.998;2022-08-01T10:12:59;28.10;99.90
48946;DHT22;34999;50.940;3.998;2022-08-01T10:15:30;28.40;99.90
48946;DHT22;34999;50.940;3.998;2022-08-01T10:18:06;28.90;99.90
48946;DHT22;34999;50.940;3.998;2022-08-01T10:20:52;29.20;99.90
48946;DHT22;34999;50.940;3.998;2022-08-01T10:23:25;29.20;99.90
48946;DHT22;34999;50.940;3.998;2022-08-01T10:26:07;28.90;99.90
48946;DHT22;34999;50.940;3.998;2022-08-01T10:28:37;28.40;99.90
48946;DHT22;34999;50.940;3.998;2022-08-01T10:31:09;28.10;99.90
48946;DHT22;34999;50.940;3.998;2022-08-01T10:33:44;27.90;99.90
48946;DHT22;34999;50.940;3.998;2022-08-01T10:36:20;27.70;99.90
48946;DHT22;34999;50.940;3.998;2022-08-01T10:38:52;27.40;99.90
48946;DHT22;34999;50.940;3.998;2022-08-01T10:41:22;27.70;99.90
48946;DHT22;34999;50.940;3.998;2022-08-01T10:43:53;28.20;99.90
48946;DHT22;34999;50.940;3.998;2022-08-01T10:46:26;28.70;99.90
48946;DHT22;34999;50.940;3.998;2022-08-01T10:49:02;28.70;99.90
48946;DHT22;34999;50.940;3.998;2022-08-01T10:51:34;28.50;99.90
48946;DHT22;34999;50.940;3.998;2022-08-01T10:54:19;28.80;99.90
48946;DHT22;34999;50.940;3.998;2022-08-01T10:56:52;29.10;99.90
48946;DHT22;34999;50.940;3.998;2022-08-01T10:59:24;29.50;99.90
48946;DHT22;34999;50.940;3.998;2022-08-01T11:02:26;29.40;99.90
48946;DHT22;34999;50.940;3.998;2022-08-01T11:05:01;29.20;99.90
48946;DHT22;34999;50.940;3.998;2022-08-01T11:07:42;29.30;99.90
48946;DHT22;34999;50.940;3.998;2022-08-01T11:10:22;29.40;99.90
48946;DHT22;34999;50.940;3.998;2022-08-01T11:12:54;29.80;99.90
48946;DHT22;34999;50.940;3.998;2022-08-01T11:15:26;29.90;99.90
48946;DHT22;34999;50.940;3.998;2022-08-01T11:18:02;29.60;99.90
48946;DHT22;34999;50.940;3.998;2022-08-01T11:20:32;29.30;99.90
48946;DHT22;34999;50.940;3.998;2022-08-01T11:23:28;29.40;99.90
48946;DHT22;34999;50.940;3.998;2022-08-01T11:26:13;29.20;99.90
48946;DHT22;34999;50.940;3.998;2022-08-01T11:28:46;29.00;99.90
48946;DHT22;34999;50.940;3.998;2022-08-01T11:31:34;29.00;99.90
48946;DHT22;34999;50.940;3.998;2022-08-01T11:34:05;28.80;99.90
48946;DHT22;34999;50.940;3.998;2022-08-01T11:36:35;28.80;99.90
48946;DHT22;34999;50.940;3.998;2022-08-01T11:39:23;28.80;99.90
48946;DHT22;34999;50.940;3.998;2022-08-01T11:41:52;28.90;99.90
48946;DHT22;34999;50.940;3.998;2022-08-01T11:44:23;29.00;99.90
48946;DHT22;34999;50.940;3.998;2022-08-01T11:47:15;29.10;99.90
48946;DHT22;34999;50.940;3.998;2022-08-01T11:49:49;29.40;99.90
48946;DHT22;34999;50.940;3.998;2022-08-01T11:52:27;29.70;99.90
48946;DHT22;34999;50.940;3.998;2022-08-01T11:54:56;29.90;99.90
48946;DHT22;34999;50.940;3.998;2022-08-01T11:57:27;29.90;99.90
48946;DHT22;34999;50.940;3.998;2022-08-01T12:00:11;29.70;99.90
48946;DHT22;34999;50.940;3.998;2022-08-01T12:02:41;29.30;99.90
48946;DHT22;34999;50.940;3.998;2022-08-01T12:05:14;29.30;99.90
48946;DHT22;34999;50.940;3.998;2022-08-01T12:07:47;29.40;99.90
48946;DHT22;34999;50.940;3.998;2022-08-01T12:10:18;29.40;99.90
48946;DHT22;34999;50.940;3.998;2022-08-01T12:12:48;29.60;99.90
48946;DHT22;34999;50.940;3.998;2022-08-01T12:15:19;29.60;99.90
48946;DHT22;34999;50.940;3.998;2022-08-01T12:17:49;29.50;99.90
48946;DHT22;34999;50.940;3.998;2022-08-01T12:20:28;29.30;99.90
48946;DHT22;34999;50.940;3.998;2022-08-01T12:22:59;29.30;99.90
48946;DHT22;34999;50.940;3.998;2022-08-01T12:25:28;29.50;99.90
48946;DHT22;34999;50.940;3.998;2022-08-01T12:28:00;29.30;99.90
48946;DHT22;34999;50.940;3.998;2022-08-01T12:30:30;29.40;99.90
48946;DHT22;34999;50.940;3.998;2022-08-01T12:33:03;29.60;99.90
48946;DHT22;34999;50.940;3.998;2022-08-01T12:35:34;29.50;99.90
48946;DHT22;34999;50.940;3.998;2022-08-01T12:38:05;29.60;99.90
48946;DHT22;34999;50.940;3.998;2022-08-01T12:40:35;29.60;99.90
48946;DHT22;34999;50.940;3.998;2022-08-01T12:43:15;29.10;99.90
48946;DHT22;34999;50.940;3.998;2022-08-01T12:45:55;28.80;99.90
48946;DHT22;34999;50.940;3.998;2022-08-01T12:48:25;28.50;99.90
48946;DHT22;34999;50.940;3.998;2022-08-01T12:50:56;28.50;99.90
48946;DHT22;34999;50.940;3.998;2022-08-01T12:53:33;29.00;99.90
48946;DHT22;34999;50.940;3.998;2022-08-01T12:56:07;29.10;99.90
48946;DHT22;34999;50.940;3.998;2022-08-01T12:58:58;29.60;99.90
48946;DHT22;34999;50.940;3.998;2022-08-01T13:01:27;29.70;99.90
48946;DHT22;34999;50.940;3.998;2022-08-01T13:03:57;29.90;99.90
48946;DHT22;34999;50.940;3.998;2022-08-01T13:06:30;29.90;99.90
48946;DHT22;34999;50.940;3.998;2022-08-01T13:09:04;30.00;99.90
48946;DHT22;34999;50.940;3.998;2022-08-01T13:11:33;29.70;99.90
48946;DHT22;34999;50.940;3.998;2022-08-01T13:14:01;29.10;99.90
48946;DHT22;34999;50.940;3.998;2022-08-01T13:16:30;28.60;99.90
48946;DHT22;34999;50.940;3.998;2022-08-01T13:22:44;28.50;99.90
48946;DHT22;34999;50.940;3.998;2022-08-01T13:25:14;28.80;99.90
48946;DHT22;34999;50.940;3.998;2022-08-01T13:27:48;29.10;99.90
48946;DHT22;34999;50.940;3.998;2022-08-01T13:30:22;29.30;99.90
48946;DHT22;34999;50.940;3.998;2022-08-01T13:32:58;29.30;99.90
48946;DHT22;34999;50.940;3.998;2022-08-01T13:35:29;29.50;99.90
48946;DHT22;34999;50.940;3.998;2022-08-01T13:37:59;29.80;99.90
48946;DHT22;34999;50.940;3.998;2022-08-01T13:40:27;29.70;99.90
48946;DHT22;34999;50.940;3.998;2022-08-01T13:42:56;29.80;99.90
48946;DHT22;34999;50.940;3.998;2022-08-01T13:45:24;30.00;99.90
48946;DHT22;34999;50.940;3.998;2022-08-01T13:47:52;29.60;99.90
48946;DHT22;34999;50.940;3.998;2022-08-01T13:50:39;29.80;99.90
48946;DHT22;34999;50.940;3.998;2022-08-01T13:53:09;30.10;99.90
48946;DHT22;34999;50.940;3.998;2022-08-01T13:55:43;30.20;99.90
48946;DHT22;34999;50.940;3.998;2022-08-01T13:58:11;30.30;99.90
48946;DHT22;34999;50.940;3.998;2022-08-01T14:00:40;30.10;99.90
48946;DHT22;34999;50.940;3.998;2022-08-01T14:03:08;29.90;99.90
48946;DHT22;34999;50.940;3.998;2022-08-01T14:05:38;29.60;99.90
48946;DHT22;34999;50.940;3.998;2022-08-01T14:08:08;29.10;99.90
48946;DHT22;34999;50.940;3.998;2022-08-01T14:10:37;29.00;99.90
48946;DHT22;34999;50.940;3.998;2022-08-01T14:13:05;29.30;99.90
48946;DHT22;34999;50.940;3.998;2022-08-01T14:15:37;29.60;99.90
48946;DHT22;34999;50.940;3.998;2022-08-01T14:18:09;29.80;99.90
48946;DHT22;34999;50.940;3.998;2022-08-01T14:20:38;29.80;99.90
48946;DHT22;34999;50.940;3.998;2022-08-01T14:23:08;29.50;99.90
48946;DHT22;34999;50.940;3.998;2022-08-01T14:25:37;29.20;99.90
48946;DHT22;34999;50.940;3.998;2022-08-01T14:28:27;29.40;99.90
48946;DHT22;34999;50.940;3.998;2022-08-01T14:30:57;30.00;99.90
48946;DHT22;34999;50.940;3.998;2022-08-01T14:33:26;30.20;99.90
48946;DHT22;34999;50.940;3.998;2022-08-01T14:35:54;30.20;99.90
48946;DHT22;34999;50.940;3.998;2022-08-01T14:38:44;30.50;99.90
48946;DHT22;34999;50.940;3.998;2022-08-01T14:41:13;30.50;99.90
48946;DHT22;34999;50.940;3.998;2022-08-01T14:43:42;30.50;99.90
48946;DHT22;34999;50.940;3.998;2022-08-01T14:46:10;30.30;99.90
48946;DHT22;34999;50.940;3.998;2022-08-01T14:48:40;30.40;99.90
48946;DHT22;34999;50.940;3.998;2022-08-01T14:51:08;30.60;99.90
48946;DHT22;34999;50.940;3.998;2022-08-01T14:53:37;30.50;99.90
48946;DHT22;34999;50.940;3.998;2022-08-01T14:56:11;30.60;99.90
48946;DHT22;34999;50.940;3.998;2022-08-01T14:58:40;31.20;99.90
48946;DHT22;34999;50.940;3.998;2022-08-01T15:01:08;31.30;99.90
48946;DHT22;34999;50.940;3.998;2022-08-01T15:03:36;30.90;99.90
48946;DHT22;34999;50.940;3.998;2022-08-01T15:06:05;30.30;99.90
48946;DHT22;34999;50.940;3.998;2022-08-01T15:08:36;30.10;99.90
48946;DHT22;34999;50.940;3.998;2022-08-01T15:11:06;30.10;99.90
48946;DHT22;34999;50.940;3.998;2022-08-01T15:13:37;30.20;99.90
48946;DHT22;34999;50.940;3.998;2022-08-01T15:16:08;30.30;99.90
48946;DHT22;34999;50.940;3.998;2022-08-01T15:18:38;30.00;99.90
48946;DHT22;34999;50.940;3.998;2022-08-01T15:21:08;29.50;99.90
48946;DHT22;34999;50.940;3.998;2022-08-01T15:23:50;29.70;99.90
48946;DHT22;34999;50.940;3.998;2022-08-01T15:26:19;30.00;99.90
48946;DHT22;34999;50.940;3.998;2022-08-01T15:28:48;30.30;99.90
48946;DHT22;34999;50.940;3.998;2022-08-01T15:31:17;30.20;99.90
48946;DHT22;34999;50.940;3.998;2022-08-01T15:33:45;30.50;99.90
48946;DHT22;34999;50.940;3.998;2022-08-01T15:36:14;30.70;99.90
48946;DHT22;34999;50.940;3.998;2022-08-01T15:38:51;30.50;98.70
48946;DHT22;34999;50.940;3.998;2022-08-01T15:41:20;30.50;99.90
48946;DHT22;34999;50.940;3.998;2022-08-01T15:43:50;30.60;99.80
48946;DHT22;34999;50.940;3.998;2022-08-01T15:46:22;30.60;99.90
48946;DHT22;34999;50.940;3.998;2022-08-01T15:48:50;30.70;98.70
48946;DHT22;34999;50.940;3.998;2022-08-01T15:51:18;30.60;99.70
48946;DHT22;34999;50.940;3.998;2022-08-01T15:53:47;30.60;99.10
48946;DHT22;34999;50.940;3.998;2022-08-01T15:56:15;30.70;99.20
48946;DHT22;34999;50.940;3.998;2022-08-01T15:58:43;30.80;99.90
48946;DHT22;34999;50.940;3.998;2022-08-01T16:01:13;30.90;99.90
48946;DHT22;34999;50.940;3.998;2022-08-01T16:03:42;31.10;99.30
48946;DHT22;34999;50.940;3.998;2022-08-01T16:06:10;31.10;98.50
48946;DHT22;34999;50.940;3.998;2022-08-01T16:08:38;31.10;98.50
48946;DHT22;34999;50.940;3.998;2022-08-01T16:11:07;31.10;98.90
48946;DHT22;34999;50.940;3.998;2022-08-01T16:13:35;31.20;98.50